createdAt,value
2018-07-17T00:00:33.277Z,82.96
2018-07-17T00:01:33.452Z,83.15
2018-07-17T00:02:33.619Z,83.05
2018-07-17T00:03:33.844Z,83.25
2018-07-17T00:04:34.034Z,83.34
2018-07-17T00:05:34.200Z,83.92
2018-07-17T00:06:34.434Z,83.83
2018-07-17T00:07:34.746Z,84.41
2018-07-17T00:08:34.856Z,84.65
2018-07-17T00:09:34.839Z,84.75
2018-07-17T00:10:34.985Z,84.36
2018-07-17T00:11:35.150Z,84.36
2018-07-17T00:12:35.510Z,84.98
2018-07-17T00:13:36.437Z,84.94
2018-07-17T00:14:36.024Z,85.23
2018-07-17T00:15:35.843Z,85.71
2018-07-17T00:16:36.018Z,85.81
2018-07-17T00:17:36.182Z,85.33
2018-07-17T00:18:36.359Z,86.00
2018-07-17T00:19:36.519Z,86.10
2018-07-17T00:20:36.689Z,86.00
2018-07-17T00:21:37.144Z,85.81
2018-07-17T00:22:36.987Z,86.10
2018-07-17T00:23:37.159Z,86.00
2018-07-17T00:24:37.332Z,86.29
2018-07-17T00:25:37.500Z,86.35
2018-07-17T00:26:37.668Z,87.02
2018-07-17T00:27:37.834Z,86.15
2018-07-17T00:28:38.047Z,86.00
2018-07-17T00:29:38.176Z,86.10
2018-07-17T00:30:38.350Z,86.10
2018-07-17T00:31:38.521Z,86.29
2018-07-17T00:32:38.724Z,85.61
2018-07-17T00:33:38.869Z,85.23
2018-07-17T00:34:39.038Z,85.52
2018-07-17T00:35:39.206Z,85.23
2018-07-17T00:36:39.381Z,85.13
2018-07-17T00:37:39.573Z,84.46
2018-07-17T00:38:39.749Z,84.36
2018-07-17T00:39:39.918Z,84.12
2018-07-17T00:40:40.098Z,85.28
2018-07-17T00:41:40.253Z,85.28
2018-07-17T00:42:40.423Z,86.05
2018-07-17T00:43:40.596Z,86.35
2018-07-17T00:44:40.780Z,87.12
2018-07-17T00:45:40.935Z,86.63
2018-07-17T00:46:41.114Z,87.21
2018-07-17T00:47:41.277Z,87.46
2018-07-17T00:48:41.463Z,87.50
2018-07-17T00:49:41.628Z,87.50
2018-07-17T00:50:41.797Z,87.30
2018-07-17T00:51:41.967Z,87.30
2018-07-17T00:52:42.141Z,87.17
2018-07-17T00:53:42.309Z,87.36
2018-07-17T00:54:42.482Z,87.17
2018-07-17T00:55:42.690Z,87.30
2018-07-17T00:56:42.831Z,87.50
2018-07-17T00:57:42.993Z,87.79
2018-07-17T00:58:43.157Z,87.50
2018-07-17T00:59:43.333Z,87.40
2018-07-17T01:00:43.546Z,87.40
2018-07-17T01:01:43.712Z,87.70
2018-07-17T01:02:43.888Z,87.36
2018-07-17T01:03:44.054Z,87.30
2018-07-17T01:04:44.219Z,87.46
2018-07-17T01:05:44.383Z,86.78
2018-07-17T01:06:44.558Z,86.59
2018-07-17T01:07:44.726Z,87.17
2018-07-17T01:08:44.905Z,87.36
2018-07-17T01:09:45.072Z,88.13
2018-07-17T01:10:45.236Z,87.65
2018-07-17T01:11:45.396Z,87.36
2018-07-17T01:12:45.569Z,87.46
2018-07-17T01:13:45.743Z,87.55
2018-07-17T01:14:45.912Z,86.98
2018-07-17T01:15:46.079Z,87.07
2018-07-17T01:16:46.246Z,87.26
2018-07-17T01:17:46.413Z,87.36
2018-07-17T01:18:46.591Z,87.65
2018-07-17T01:19:46.758Z,87.30
2018-07-17T01:20:46.928Z,87.36
2018-07-17T01:21:47.097Z,87.07
2018-07-17T01:22:47.266Z,86.98
2018-07-17T01:23:47.441Z,86.98
2018-07-17T01:24:47.609Z,87.17
2018-07-17T01:25:47.778Z,87.07
2018-07-17T01:26:47.954Z,87.36
2018-07-17T01:27:48.131Z,87.36
2018-07-17T01:28:48.299Z,87.46
2018-07-17T01:29:48.467Z,88.13
2018-07-17T01:30:48.640Z,87.36
2018-07-17T01:31:48.809Z,87.26
2018-07-17T01:32:48.992Z,87.74
2018-07-17T01:33:49.155Z,88.09
2018-07-17T01:34:49.323Z,87.94
2018-07-17T01:35:49.494Z,88.47
2018-07-17T01:36:49.687Z,88.38
2018-07-17T01:37:49.818Z,88.67
2018-07-17T01:38:49.987Z,88.85
2018-07-17T01:39:50.158Z,88.61
2018-07-17T01:40:50.327Z,88.04
2018-07-17T01:41:50.507Z,87.94
2018-07-17T01:42:50.690Z,88.23
2018-07-17T01:43:50.845Z,87.65
2018-07-17T01:44:51.016Z,88.04
2018-07-17T01:45:51.188Z,87.80
2018-07-17T01:46:51.359Z,88.28
2018-07-17T01:47:51.542Z,88.85
2018-07-17T01:48:51.707Z,88.76
2018-07-17T01:49:51.880Z,88.95
2018-07-17T01:50:52.048Z,88.28
2018-07-17T01:51:52.217Z,88.09
2018-07-17T01:52:52.383Z,87.99
2018-07-17T01:53:52.556Z,87.70
2018-07-17T01:54:52.725Z,87.74
2018-07-17T01:55:52.888Z,88.09
2018-07-17T01:56:53.057Z,88.38
2018-07-17T01:57:53.231Z,88.18
2018-07-17T01:58:53.409Z,88.28
2018-07-17T01:59:53.580Z,88.47
2018-07-17T02:00:53.747Z,88.85
2018-07-17T02:01:53.915Z,88.57
2018-07-17T02:02:54.083Z,89.24
2018-07-17T02:03:54.254Z,89.05
2018-07-17T02:04:54.463Z,89.53
2018-07-17T02:05:54.597Z,89.63
2018-07-17T02:06:54.763Z,89.34
2018-07-17T02:07:54.927Z,89.53
2018-07-17T02:08:55.100Z,89.53
2018-07-17T02:09:55.276Z,90.11
2018-07-17T02:10:55.448Z,89.63
2018-07-17T02:11:55.615Z,89.63
2018-07-17T02:12:55.790Z,89.34
2018-07-17T02:13:55.958Z,89.53
2018-07-17T02:14:56.121Z,89.63
2018-07-17T02:15:56.311Z,89.82
2018-07-17T02:16:56.483Z,89.34
2018-07-17T02:17:56.654Z,89.82
2018-07-17T02:18:56.819Z,88.95
2018-07-17T02:19:56.997Z,87.08
2018-07-17T02:20:57.163Z,87.66
2018-07-17T02:21:57.339Z,88.24
2018-07-17T02:22:57.519Z,88.24
2018-07-17T02:23:57.693Z,88.71
2018-07-17T02:24:57.857Z,89.58
2018-07-17T02:25:58.028Z,89.78
2018-07-17T02:26:58.197Z,90.73
2018-07-17T02:27:58.368Z,90.35
2018-07-17T02:28:58.557Z,89.01
2018-07-17T02:29:58.735Z,88.62
2018-07-17T02:30:58.886Z,88.91
2018-07-17T02:31:59.051Z,89.20
2018-07-17T02:32:59.578Z,89.78
2018-07-17T02:33:59.539Z,89.49
2018-07-17T02:34:59.559Z,88.62
2018-07-17T02:35:59.726Z,87.56
2018-07-17T02:36:59.899Z,87.95
2018-07-17T02:38:00.069Z,88.04
2018-07-17T02:39:00.257Z,88.62
2018-07-17T02:40:00.404Z,89.10
2018-07-17T02:41:00.629Z,89.78
2018-07-17T02:42:00.812Z,89.58
2018-07-17T02:43:00.978Z,89.49
2018-07-17T02:44:01.150Z,89.78
2018-07-17T02:45:01.402Z,89.35
2018-07-17T02:46:01.487Z,89.35
2018-07-17T02:47:01.655Z,89.35
2018-07-17T02:48:01.822Z,89.54
2018-07-17T02:49:01.987Z,89.54
2018-07-17T02:50:02.160Z,90.79
2018-07-17T02:51:02.329Z,91.46
2018-07-17T02:52:02.565Z,90.84
2018-07-17T02:53:02.619Z,91.27
2018-07-17T02:54:02.786Z,90.98
2018-07-17T02:55:02.967Z,90.98
2018-07-17T02:56:03.115Z,90.89
2018-07-17T02:57:03.286Z,91.27
2018-07-17T02:58:03.453Z,90.79
2018-07-17T02:59:03.615Z,90.41
2018-07-17T03:00:03.789Z,90.64
2018-07-17T03:01:03.957Z,90.59
2018-07-17T03:02:04.194Z,90.50
2018-07-17T03:03:04.305Z,90.69
2018-07-17T03:04:04.475Z,90.41
2018-07-17T03:05:04.646Z,89.83
2018-07-17T03:06:04.814Z,90.06
2018-07-17T03:07:05.008Z,89.83
2018-07-17T03:08:05.150Z,90.02
2018-07-17T03:09:05.323Z,90.12
2018-07-17T03:10:05.493Z,90.02
2018-07-17T03:11:05.657Z,89.92
2018-07-17T03:12:06.252Z,89.39
2018-07-17T03:13:06.445Z,89.44
2018-07-17T03:14:06.558Z,89.73
2018-07-17T03:15:06.755Z,89.83
2018-07-17T03:16:06.910Z,89.73
2018-07-17T03:17:07.089Z,89.44
2018-07-17T03:18:07.319Z,90.31
2018-07-17T03:19:07.372Z,90.41
2018-07-17T03:20:07.697Z,90.84
2018-07-17T03:21:07.775Z,90.55
2018-07-17T03:22:08.032Z,91.32
2018-07-17T03:23:08.165Z,90.26
2018-07-17T03:24:08.391Z,91.22
2018-07-17T03:25:08.422Z,91.13
2018-07-17T03:26:08.310Z,90.94
2018-07-17T03:27:08.480Z,91.22
2018-07-17T03:28:08.654Z,90.75
2018-07-17T03:29:09.715Z,91.22
2018-07-17T03:30:08.995Z,90.69
2018-07-17T03:31:09.160Z,90.89
2018-07-17T03:32:09.335Z,90.41
2018-07-17T03:33:09.499Z,90.21
2018-07-17T03:34:09.678Z,90.02
2018-07-17T03:35:09.838Z,90.31
2018-07-17T03:36:10.017Z,90.79
2018-07-17T03:37:10.175Z,90.21
2018-07-17T03:38:10.343Z,90.31
2018-07-17T03:39:10.517Z,90.59
2018-07-17T03:40:10.685Z,90.69
2018-07-17T03:41:10.860Z,90.21
2018-07-17T03:42:11.024Z,90.59
2018-07-17T03:43:11.196Z,91.08
2018-07-17T03:44:11.363Z,90.69
2018-07-17T03:45:11.535Z,90.69
2018-07-17T03:46:11.696Z,91.27
2018-07-17T03:47:11.868Z,91.36
2018-07-17T03:48:12.037Z,90.89
2018-07-17T03:49:12.203Z,91.27
2018-07-17T03:50:12.376Z,91.27
2018-07-17T03:51:12.539Z,91.52
2018-07-17T03:52:12.705Z,91.17
2018-07-17T03:53:12.886Z,90.31
2018-07-17T03:54:13.057Z,90.79
2018-07-17T03:55:13.226Z,91.46
2018-07-17T03:56:13.468Z,91.27
2018-07-17T03:57:13.527Z,91.36
2018-07-17T03:58:13.764Z,91.27
2018-07-17T03:59:13.804Z,90.21
2018-07-17T04:00:13.979Z,90.41
2018-07-17T04:01:14.149Z,90.69
2018-07-17T04:02:14.310Z,90.21
2018-07-17T04:03:14.484Z,90.31
2018-07-17T04:04:14.692Z,90.02
2018-07-17T04:05:14.814Z,89.73
2018-07-17T04:06:14.984Z,90.21
2018-07-17T04:07:15.156Z,90.31
2018-07-17T04:08:15.325Z,90.31
2018-07-17T04:09:15.490Z,90.12
2018-07-17T04:10:15.665Z,90.02
2018-07-17T04:11:15.837Z,89.73
2018-07-17T04:12:16.011Z,90.02
2018-07-17T04:13:16.183Z,90.69
2018-07-17T04:14:16.347Z,90.50
2018-07-17T04:15:16.515Z,90.89
2018-07-17T04:16:16.687Z,91.27
2018-07-17T04:17:16.860Z,91.27
2018-07-17T04:18:17.020Z,91.36
2018-07-17T04:19:17.195Z,90.12
2018-07-17T04:20:17.355Z,90.45
2018-07-17T04:21:17.529Z,90.59
2018-07-17T04:22:17.690Z,90.21
2018-07-17T04:23:17.860Z,90.50
2018-07-17T04:24:18.028Z,90.35
2018-07-17T04:25:18.989Z,89.78
2018-07-17T04:26:18.378Z,89.44
2018-07-17T04:27:18.541Z,89.64
2018-07-17T04:28:18.709Z,90.21
2018-07-17T04:29:18.870Z,90.59
2018-07-17T04:30:19.049Z,90.41
2018-07-17T04:31:19.222Z,91.36
2018-07-17T04:32:19.384Z,91.08
2018-07-17T04:33:19.554Z,91.56
2018-07-17T04:34:19.721Z,90.89
2018-07-17T04:35:19.885Z,90.98
2018-07-17T04:36:20.059Z,90.89
2018-07-17T04:37:20.226Z,91.27
2018-07-17T04:38:20.398Z,91.27
2018-07-17T04:39:20.564Z,90.59
2018-07-17T04:40:20.744Z,90.50
2018-07-17T04:41:20.907Z,90.69
2018-07-17T04:42:21.079Z,90.69
2018-07-17T04:43:21.251Z,90.45
2018-07-17T04:44:21.418Z,90.73
2018-07-17T04:45:21.593Z,89.78
2018-07-17T04:46:21.757Z,89.68
2018-07-17T04:47:21.932Z,89.78
2018-07-17T04:48:22.099Z,89.29
2018-07-17T04:49:22.324Z,89.58
2018-07-17T04:50:22.500Z,89.29
2018-07-17T04:51:22.669Z,89.20
2018-07-17T04:52:22.838Z,88.62
2018-07-17T04:53:23.009Z,88.09
2018-07-17T04:54:23.181Z,88.38
2018-07-17T04:55:23.348Z,88.57
2018-07-17T04:56:23.512Z,88.67
2018-07-17T04:57:23.689Z,88.95
2018-07-17T04:58:23.859Z,89.29
2018-07-17T04:59:24.036Z,89.49
2018-07-17T05:00:24.208Z,90.16
2018-07-17T05:01:24.383Z,89.87
2018-07-17T05:02:24.553Z,90.35
2018-07-17T05:03:24.718Z,89.78
2018-07-17T05:04:24.888Z,89.58
2018-07-17T05:05:25.059Z,89.78
2018-07-17T05:06:25.231Z,90.26
2018-07-17T05:07:25.399Z,90.64
2018-07-17T05:08:25.575Z,90.45
2018-07-17T05:09:26.499Z,90.06
2018-07-17T05:10:25.929Z,90.35
2018-07-17T05:11:26.097Z,90.83
2018-07-17T05:12:26.278Z,90.45
2018-07-17T05:13:26.448Z,90.55
2018-07-17T05:14:26.620Z,90.45
2018-07-17T05:15:26.789Z,90.73
2018-07-17T05:16:27.031Z,90.73
2018-07-17T05:17:27.120Z,90.55
2018-07-17T05:18:27.286Z,90.64
2018-07-17T05:19:27.460Z,90.45
2018-07-17T05:20:27.625Z,91.13
2018-07-17T05:21:27.797Z,91.03
2018-07-17T05:22:27.981Z,90.26
2018-07-17T05:23:28.132Z,90.55
2018-07-17T05:24:28.301Z,90.64
2018-07-17T05:25:28.469Z,90.55
2018-07-17T05:26:28.642Z,90.64
2018-07-17T05:27:28.815Z,90.73
2018-07-17T05:28:28.980Z,91.31
2018-07-17T05:29:29.162Z,91.13
2018-07-17T05:30:29.335Z,91.13
2018-07-17T05:31:29.501Z,91.17
2018-07-17T05:32:29.676Z,90.93
2018-07-17T05:33:29.847Z,91.31
2018-07-17T05:34:30.016Z,91.60
2018-07-17T05:35:30.247Z,91.41
2018-07-17T05:36:30.350Z,90.73
2018-07-17T05:37:30.512Z,91.36
2018-07-17T05:38:30.683Z,90.45
2018-07-17T05:39:30.852Z,90.11
2018-07-17T05:40:31.024Z,89.49
2018-07-17T05:41:31.193Z,89.63
2018-07-17T05:42:31.358Z,89.34
2018-07-17T05:43:31.527Z,89.34
2018-07-17T05:44:31.714Z,89.15
2018-07-17T05:45:31.870Z,88.76
2018-07-17T05:46:32.103Z,88.47
2018-07-17T05:47:32.204Z,87.80
2018-07-17T05:48:32.379Z,88.47
2018-07-17T05:49:32.545Z,88.23
2018-07-17T05:50:32.712Z,87.65
2018-07-17T05:51:32.889Z,87.74
2018-07-17T05:52:33.056Z,87.46
2018-07-17T05:53:33.227Z,88.04
2018-07-17T05:54:33.393Z,87.74
2018-07-17T05:55:33.562Z,87.17
2018-07-17T05:56:33.730Z,87.07
2018-07-17T05:57:33.908Z,87.65
2018-07-17T05:58:34.076Z,87.84
2018-07-17T05:59:34.247Z,87.65
2018-07-17T06:00:34.419Z,87.84
2018-07-17T06:01:34.585Z,87.12
2018-07-17T06:02:34.761Z,87.21
2018-07-17T06:03:34.925Z,87.40
2018-07-17T06:04:35.098Z,87.50
2018-07-17T06:05:35.267Z,87.88
2018-07-17T06:06:35.443Z,87.02
2018-07-17T06:07:35.602Z,86.92
2018-07-17T06:08:35.773Z,87.70
2018-07-17T06:09:35.942Z,86.73
2018-07-17T06:10:36.116Z,86.96
2018-07-17T06:11:36.287Z,87.26
2018-07-17T06:12:36.459Z,87.16
2018-07-17T06:13:36.629Z,87.16
2018-07-17T06:14:36.796Z,86.96
2018-07-17T06:15:36.969Z,87.16
2018-07-17T06:16:37.142Z,87.06
2018-07-17T06:17:37.311Z,86.77
2018-07-17T06:18:37.478Z,86.48
2018-07-17T06:19:37.651Z,86.87
2018-07-17T06:20:37.817Z,87.16
2018-07-17T06:21:37.988Z,86.96
2018-07-17T06:22:38.161Z,86.91
2018-07-17T06:23:38.330Z,86.24
2018-07-17T06:24:38.502Z,86.04
2018-07-17T06:25:39.533Z,85.94
2018-07-17T06:26:38.859Z,85.94
2018-07-17T06:27:39.031Z,85.27
2018-07-17T06:28:39.199Z,85.27
2018-07-17T06:29:39.382Z,85.12
2018-07-17T06:30:39.558Z,84.54
2018-07-17T06:31:39.733Z,84.54
2018-07-17T06:32:39.893Z,84.06
2018-07-17T06:33:40.064Z,82.84
2018-07-17T06:34:40.239Z,82.23
2018-07-17T06:35:40.408Z,83.23
2018-07-17T06:36:40.579Z,82.65
2018-07-17T06:37:40.750Z,82.36
2018-07-17T06:38:40.916Z,81.78
2018-07-17T06:39:41.087Z,82.07
2018-07-17T06:40:41.255Z,82.94
2018-07-17T06:41:41.433Z,82.50
2018-07-17T06:42:41.609Z,81.24
2018-07-17T06:43:41.781Z,81.11
2018-07-17T06:44:41.999Z,81.30
2018-07-17T06:45:42.128Z,81.34
2018-07-17T06:46:42.295Z,80.95
2018-07-17T06:47:42.467Z,81.20
2018-07-17T06:48:42.647Z,81.44
2018-07-17T06:49:42.827Z,81.05
2018-07-17T06:50:43.025Z,80.95
2018-07-17T06:51:43.169Z,80.95
2018-07-17T06:52:43.340Z,81.24
2018-07-17T06:53:43.516Z,80.76
2018-07-17T06:54:43.697Z,79.89
2018-07-17T06:55:43.851Z,79.80
2018-07-17T06:56:44.026Z,80.38
2018-07-17T06:57:44.200Z,80.47
2018-07-17T06:58:44.367Z,80.08
2018-07-17T06:59:44.541Z,80.86
2018-07-17T07:00:44.711Z,80.41
2018-07-17T07:01:44.881Z,80.22
2018-07-17T07:02:45.050Z,79.35
2018-07-17T07:03:46.100Z,78.91
2018-07-17T07:04:45.394Z,78.13
2018-07-17T07:05:45.567Z,77.94
2018-07-17T07:06:45.739Z,76.72
2018-07-17T07:07:45.913Z,76.24
2018-07-17T07:08:46.087Z,75.89
2018-07-17T07:09:46.258Z,75.46
2018-07-17T07:10:46.431Z,74.69
2018-07-17T07:11:46.596Z,74.40
2018-07-17T07:12:46.770Z,74.79
2018-07-17T07:13:46.945Z,75.85
2018-07-17T07:14:47.109Z,74.69
2018-07-17T07:15:47.441Z,74.98
2018-07-17T07:16:47.487Z,74.53
2018-07-17T07:17:47.664Z,74.73
2018-07-17T07:18:47.836Z,74.05
2018-07-17T07:19:48.010Z,74.53
2018-07-17T07:20:48.181Z,74.96
2018-07-17T07:21:48.368Z,74.28
2018-07-17T07:22:48.540Z,73.89
2018-07-17T07:23:48.717Z,74.08
2018-07-17T07:24:49.604Z,72.53
2018-07-17T07:25:49.030Z,71.80
2018-07-17T07:26:49.207Z,71.99
2018-07-17T07:27:49.377Z,73.21
2018-07-17T07:28:49.548Z,73.50
2018-07-17T07:29:49.714Z,72.96
2018-07-17T07:30:49.902Z,72.86
2018-07-17T07:31:50.077Z,71.60
2018-07-17T07:32:50.251Z,72.47
2018-07-17T07:33:50.422Z,72.96
2018-07-17T07:34:50.590Z,71.89
2018-07-17T07:35:50.769Z,71.89
2018-07-17T07:36:50.937Z,71.31
2018-07-17T07:37:51.109Z,70.92
2018-07-17T07:38:51.276Z,70.15
2018-07-17T07:39:51.449Z,69.47
2018-07-17T07:40:51.625Z,69.67
2018-07-17T07:41:51.803Z,69.27
2018-07-17T07:42:51.981Z,69.50
2018-07-17T07:43:52.142Z,68.82
2018-07-17T07:44:52.311Z,68.54
2018-07-17T07:45:52.478Z,68.73
2018-07-17T07:46:52.655Z,68.54
2018-07-17T07:47:52.832Z,68.92
2018-07-17T07:48:52.999Z,68.54
2018-07-17T07:49:53.186Z,68.66
2018-07-17T07:50:53.358Z,68.96
2018-07-17T07:51:53.531Z,67.89
2018-07-17T07:52:53.703Z,67.21
2018-07-17T07:53:53.868Z,67.63
2018-07-17T07:54:54.044Z,68.37
2018-07-17T07:55:54.213Z,68.41
2018-07-17T07:56:54.388Z,68.70
2018-07-17T07:57:54.565Z,68.12
2018-07-17T07:58:54.737Z,68.21
2018-07-17T07:59:54.904Z,68.21
2018-07-17T08:00:55.074Z,68.79
2018-07-17T08:01:55.249Z,67.44
2018-07-17T08:02:55.420Z,67.24
2018-07-17T08:03:56.170Z,67.24
2018-07-17T08:04:55.805Z,66.21
2018-07-17T08:05:56.186Z,66.21
2018-07-17T08:06:56.105Z,65.85
2018-07-17T08:07:56.283Z,65.95
2018-07-17T08:08:56.447Z,64.88
2018-07-17T08:09:56.627Z,64.30
2018-07-17T08:10:56.798Z,65.40
2018-07-17T08:11:57.000Z,64.43
2018-07-17T08:12:57.141Z,63.84
2018-07-17T08:13:58.125Z,64.43
2018-07-17T08:14:57.547Z,64.33
2018-07-17T08:15:57.720Z,63.65
2018-07-17T08:16:57.889Z,63.49
2018-07-17T08:17:58.060Z,63.29
2018-07-17T08:18:58.232Z,62.90
2018-07-17T08:19:59.123Z,62.81
2018-07-17T08:20:58.541Z,62.32
2018-07-17T08:21:58.715Z,62.13
2018-07-17T08:22:58.885Z,61.35
2018-07-17T08:23:59.070Z,62.61
2018-07-17T08:24:59.254Z,61.64
2018-07-17T08:25:59.433Z,62.45
2018-07-17T08:26:59.601Z,61.74
2018-07-17T08:27:59.779Z,61.54
2018-07-17T08:28:59.956Z,62.35
2018-07-17T08:30:00.131Z,60.89
2018-07-17T08:31:00.320Z,60.44
2018-07-17T08:32:00.487Z,58.97
2018-07-17T08:33:00.661Z,58.97
2018-07-17T08:34:00.838Z,59.07
2018-07-17T08:35:01.018Z,58.97
2018-07-17T08:36:01.196Z,58.91
2018-07-17T08:37:01.362Z,58.91
2018-07-17T08:38:01.537Z,59.20
2018-07-17T08:39:01.720Z,59.00
2018-07-17T08:40:01.895Z,58.84
2018-07-17T08:41:02.069Z,58.45
2018-07-17T08:42:02.247Z,56.99
2018-07-17T08:43:02.420Z,57.09
2018-07-17T08:44:02.596Z,57.67
2018-07-17T08:45:02.775Z,57.21
2018-07-17T08:46:02.945Z,57.40
2018-07-17T08:47:03.116Z,57.11
2018-07-17T08:48:03.294Z,57.01
2018-07-17T08:49:03.523Z,55.97
2018-07-17T08:50:03.641Z,55.46
2018-07-17T08:51:03.811Z,55.26
2018-07-17T08:52:03.988Z,55.09
2018-07-17T08:53:04.164Z,55.19
2018-07-17T08:54:04.384Z,54.73
2018-07-17T08:55:04.534Z,53.85
2018-07-17T08:56:04.690Z,53.00
2018-07-17T08:57:04.861Z,52.70
2018-07-17T08:58:05.050Z,52.80
2018-07-17T08:59:05.220Z,51.82
2018-07-17T09:00:05.407Z,51.24
2018-07-17T09:01:05.571Z,51.95
2018-07-17T09:02:05.742Z,51.46
2018-07-17T09:03:05.915Z,50.78
2018-07-17T09:04:06.087Z,50.00
2018-07-17T09:05:06.260Z,51.10
2018-07-17T09:06:06.442Z,50.51
2018-07-17T09:07:07.129Z,50.71
2018-07-17T09:08:07.634Z,50.32
2018-07-17T09:09:07.628Z,50.02
2018-07-17T09:10:07.064Z,49.85
2018-07-17T09:11:07.242Z,49.77
2018-07-17T09:12:07.428Z,49.46
2018-07-17T09:13:07.660Z,48.80
2018-07-17T09:14:07.790Z,48.02
2018-07-17T09:15:07.964Z,46.77
2018-07-17T09:16:08.150Z,47.77
2018-07-17T09:17:08.326Z,43.76
2018-07-17T09:18:08.507Z,42.99
2018-07-17T09:19:08.678Z,41.42
2018-07-17T09:20:08.855Z,40.56
2018-07-17T09:21:09.033Z,38.12
2018-07-17T09:22:09.204Z,36.78
2018-07-17T09:23:09.377Z,34.75
2018-07-17T09:24:09.559Z,34.31
2018-07-17T09:25:09.735Z,32.79
2018-07-17T09:26:09.924Z,30.37
2018-07-17T09:27:10.114Z,28.85
2018-07-17T09:28:10.285Z,26.73
2018-07-17T09:29:10.457Z,25.09
2018-07-17T09:30:10.638Z,23.74
2018-07-17T09:31:10.817Z,23.07
2018-07-17T09:32:10.998Z,22.40
2018-07-17T09:33:11.177Z,22.50
2018-07-17T09:34:11.365Z,21.11
2018-07-17T09:35:11.546Z,19.21
2018-07-17T09:36:11.727Z,19.04
2018-07-17T09:37:11.906Z,19.25
2018-07-17T09:38:12.088Z,19.17
2018-07-17T09:39:12.276Z,18.28
2018-07-17T09:40:12.458Z,18.49
2018-07-17T09:41:12.641Z,16.61
2018-07-17T09:42:12.820Z,15.92
2018-07-17T09:43:13.023Z,16.23
2018-07-17T09:44:13.231Z,16.53
2018-07-17T09:45:13.398Z,15.64
2018-07-17T09:46:13.582Z,14.43
2018-07-17T09:47:13.765Z,13.84
2018-07-17T09:48:13.952Z,13.54
2018-07-17T09:49:14.139Z,13.54
2018-07-17T09:50:14.326Z,13.94
2018-07-17T09:51:14.521Z,13.84
2018-07-17T09:52:14.701Z,13.51
2018-07-17T09:53:14.892Z,13.62
2018-07-17T09:54:15.135Z,13.62
2018-07-17T09:55:15.263Z,13.43
2018-07-17T09:56:15.458Z,13.51
2018-07-17T09:57:15.650Z,14.50
2018-07-17T09:58:15.846Z,14.53
2018-07-17T09:59:16.036Z,13.72
2018-07-17T10:00:16.223Z,13.13
2018-07-17T10:01:16.414Z,13.54
2018-07-17T10:02:16.614Z,13.15
2018-07-17T10:03:16.806Z,12.65
2018-07-17T10:04:16.995Z,14.36
2018-07-17T10:05:17.183Z,12.75
2018-07-17T10:06:17.387Z,12.45
2018-07-17T10:07:17.570Z,13.43
2018-07-17T10:08:17.758Z,12.64
2018-07-17T10:09:17.943Z,13.02
2018-07-17T10:10:18.128Z,13.53
2018-07-17T10:11:18.320Z,12.54
2018-07-17T10:12:18.512Z,11.35
2018-07-17T10:13:18.702Z,11.65
2018-07-17T10:14:18.890Z,11.95
2018-07-17T10:15:19.076Z,11.56
2018-07-17T10:16:19.267Z,11.76
2018-07-17T10:17:19.453Z,12.04
2018-07-17T10:18:19.648Z,11.25
2018-07-17T10:19:19.958Z,10.23
2018-07-17T10:20:20.074Z,10.53
2018-07-17T10:21:20.217Z,11.52
2018-07-17T10:22:20.411Z,11.43
2018-07-17T10:23:20.604Z,11.54
2018-07-17T10:24:20.873Z,12.35
2018-07-17T10:25:20.947Z,11.65
2018-07-17T10:26:21.170Z,10.65
2018-07-17T10:27:21.322Z,10.25
2018-07-17T10:28:21.517Z,10.75
2018-07-17T10:29:21.711Z,10.56
2018-07-17T10:30:21.907Z,10.47
2018-07-17T10:31:22.090Z,9.66
2018-07-17T10:32:22.293Z,9.77
2018-07-17T10:33:22.485Z,10.18
2018-07-17T10:34:22.673Z,9.77
2018-07-17T10:35:22.869Z,9.67
2018-07-17T10:36:23.055Z,9.47
2018-07-17T10:37:23.250Z,9.28
2018-07-17T10:38:23.439Z,8.98
2018-07-17T10:39:23.635Z,9.18
2018-07-17T10:40:23.833Z,8.68
2018-07-17T10:41:24.022Z,9.28
2018-07-17T10:42:24.218Z,8.17
2018-07-17T10:43:24.415Z,7.87
2018-07-17T10:44:24.607Z,8.07
2018-07-17T10:45:24.800Z,8.56
2018-07-17T10:46:24.992Z,8.45
2018-07-17T10:47:25.190Z,9.16
2018-07-17T10:48:25.381Z,9.17
2018-07-17T10:49:25.568Z,9.17
2018-07-17T10:50:25.770Z,8.28
2018-07-17T10:51:25.992Z,6.86
2018-07-17T10:52:26.160Z,8.07
2018-07-17T10:53:26.351Z,7.47
2018-07-17T10:54:26.548Z,6.87
2018-07-17T10:55:26.748Z,7.59
2018-07-17T10:56:26.943Z,7.18
2018-07-17T10:57:27.138Z,6.88
2018-07-17T10:58:27.330Z,6.68
2018-07-17T10:59:27.527Z,6.48
2018-07-17T11:00:27.731Z,7.09
2018-07-17T11:01:27.929Z,6.78
2018-07-17T11:02:28.127Z,6.88
2018-07-17T11:03:28.322Z,7.09
2018-07-17T11:04:28.519Z,7.29
2018-07-17T11:05:28.712Z,6.58
2018-07-17T11:06:28.912Z,6.77
2018-07-17T11:07:29.096Z,7.67
2018-07-17T11:08:29.326Z,6.87
2018-07-17T11:09:29.490Z,7.07
2018-07-17T11:10:29.693Z,7.28
2018-07-17T11:11:29.896Z,7.49
2018-07-17T11:12:30.090Z,7.29
2018-07-17T11:13:30.296Z,7.09
2018-07-17T11:14:30.496Z,8.21
2018-07-17T11:15:30.693Z,7.49
2018-07-17T11:16:30.888Z,8.10
2018-07-17T11:17:31.111Z,7.40
2018-07-17T11:18:31.311Z,6.77
2018-07-17T11:19:31.506Z,7.76
2018-07-17T11:20:31.701Z,8.26
2018-07-17T11:21:31.893Z,9.27
2018-07-17T11:22:32.092Z,9.06
2018-07-17T11:23:32.294Z,8.67
2018-07-17T11:24:32.498Z,8.97
2018-07-17T11:25:32.691Z,8.47
2018-07-17T11:26:32.893Z,8.38
2018-07-17T11:27:33.083Z,8.39
2018-07-17T11:28:34.053Z,8.09
2018-07-17T11:29:33.486Z,7.38
2018-07-17T11:30:33.687Z,7.99
2018-07-17T11:31:33.882Z,8.09
2018-07-17T11:32:34.225Z,7.29
2018-07-17T11:33:34.299Z,8.50
2018-07-17T11:34:34.498Z,8.81
2018-07-17T11:35:34.696Z,8.20
2018-07-17T11:36:34.901Z,8.19
2018-07-17T11:37:35.094Z,9.08
2018-07-17T11:38:35.344Z,9.28
2018-07-17T11:39:35.483Z,9.28
2018-07-17T11:40:35.693Z,9.08
2018-07-17T11:43:22.088Z,8.71
2018-07-17T11:44:22.284Z,8.31
2018-07-17T11:45:22.485Z,7.71
2018-07-17T11:46:22.679Z,8.12
2018-07-17T11:47:22.877Z,7.92
2018-07-17T11:48:23.070Z,7.81
2018-07-17T11:49:23.267Z,7.20
2018-07-17T11:50:23.469Z,7.00
2018-07-17T11:51:23.666Z,7.21
2018-07-17T11:52:23.868Z,7.10
2018-07-17T11:53:24.080Z,8.01
2018-07-17T11:54:24.269Z,9.28
2018-07-17T11:55:24.465Z,10.46
2018-07-17T11:56:24.667Z,10.96
2018-07-17T11:57:24.867Z,11.18
2018-07-17T11:58:25.073Z,10.97
2018-07-17T11:59:25.467Z,11.72
2018-07-17T12:00:25.478Z,13.20
2018-07-17T12:01:25.680Z,13.68
2018-07-17T12:02:25.887Z,13.67
2018-07-17T12:03:26.090Z,14.36
2018-07-17T12:04:26.283Z,15.74
2018-07-17T12:05:26.518Z,15.76
2018-07-17T12:06:26.674Z,14.70
2018-07-17T12:07:26.863Z,12.84
2018-07-17T12:08:27.057Z,12.13
2018-07-17T12:09:27.247Z,12.54
2018-07-17T12:10:27.437Z,11.84
2018-07-17T12:11:27.643Z,11.94
2018-07-17T12:12:27.820Z,12.62
2018-07-17T12:13:28.021Z,12.05
2018-07-17T12:14:28.205Z,11.87
2018-07-17T12:15:28.400Z,11.48
2018-07-17T12:16:28.594Z,10.47
2018-07-17T12:17:28.788Z,10.46
2018-07-17T12:18:28.980Z,11.67
2018-07-17T12:19:29.178Z,11.77
2018-07-17T12:20:29.794Z,12.15
2018-07-17T12:21:30.014Z,11.74
2018-07-17T12:22:29.722Z,13.62
2018-07-17T12:23:29.914Z,13.79
2018-07-17T12:24:30.108Z,13.78
2018-07-17T12:25:30.309Z,14.66
2018-07-17T12:26:30.571Z,15.24
2018-07-17T12:27:30.631Z,15.73
2018-07-17T12:28:30.819Z,15.61
2018-07-17T12:29:31.017Z,15.61
2018-07-17T12:30:31.204Z,19.18
2018-07-17T12:31:31.444Z,17.47
2018-07-17T12:32:31.643Z,17.37
2018-07-17T12:33:31.830Z,18.85
2018-07-17T12:34:32.021Z,18.16
2018-07-17T12:35:32.254Z,17.84
2018-07-17T12:36:32.445Z,18.93
2018-07-17T12:37:32.636Z,19.33
2018-07-17T12:38:32.818Z,19.44
2018-07-17T12:39:33.004Z,18.16
2018-07-17T12:40:33.192Z,17.77
2018-07-17T12:41:33.387Z,16.79
2018-07-17T12:42:33.562Z,17.00
2018-07-17T12:43:33.755Z,15.44
2018-07-17T12:44:34.000Z,17.74
2018-07-17T12:45:34.189Z,16.44
2018-07-17T12:46:34.375Z,15.12
2018-07-17T12:47:34.565Z,16.90
2018-07-17T12:48:34.757Z,17.49
2018-07-17T12:49:34.951Z,18.14
2018-07-17T12:50:35.222Z,18.82
2018-07-17T12:51:35.347Z,19.40
2018-07-17T12:52:35.532Z,19.79
2018-07-17T12:53:35.767Z,20.00
2018-07-17T12:54:35.954Z,19.29
2018-07-17T12:55:36.148Z,19.98
2018-07-17T12:56:36.368Z,19.19
2018-07-17T12:57:36.548Z,21.07
2018-07-17T12:58:36.742Z,19.79
2018-07-17T12:59:36.925Z,20.19